Merrickville, Canada
Current Conditions -  °F | °C
As of 3:00 AM on Thursday 29 Jan 2015 (Local Time) from CYOW Reporting Station
Clear Clear  
Wind Chill:   Ceiling: Unl
Heat Index:   Visibility: 15mi
Dew Point: -6°   Wind: 2mph
Humidity: 72%   Direction: 190°S
Pressure: 30.27"   Gusts: NA
Location:  44.92°N, 75.83°W
Report Text: CYOW 290800Z 19002KT 15SM SKC M17/M21 A3027 RMK SLP259
Loading
Personal Weather Stations






























Interactive Weather Map New forecast layout! Learn more

10-Day Weather Forecast

Advertisements
Track Severe Weather on mobile